createdAt,value
2023-02-14T00:00:02.590Z,103721.75
2023-02-14T00:02:30.337Z,103725.94
2023-02-14T00:04:59.522Z,103718.56
2023-02-14T00:07:27.196Z,103713.19
2023-02-14T00:09:54.809Z,103712.13
2023-02-14T00:12:22.458Z,103712.03
2023-02-14T00:15:07.624Z,103729.53
2023-02-14T00:17:35.274Z,103712.69
2023-02-14T00:20:05.138Z,103725.00
2023-02-14T00:22:32.908Z,103720.56
2023-02-14T00:25:00.534Z,103722.38
2023-02-14T00:27:28.155Z,103725.88
2023-02-14T00:29:58.183Z,103717.06
2023-02-14T00:32:25.771Z,103723.22
2023-02-14T00:34:53.414Z,103721.50
2023-02-14T00:37:22.775Z,103718.84
2023-02-14T00:39:50.429Z,103712.69
2023-02-14T00:42:18.549Z,103709.19
2023-02-14T00:44:46.215Z,103717.31
2023-02-14T00:47:13.778Z,103715.72
2023-02-14T00:49:41.386Z,103709.56
2023-02-14T00:52:09.092Z,103703.78
2023-02-14T00:54:38.030Z,103707.28
2023-02-14T00:57:05.605Z,103707.09
2023-02-14T00:59:33.342Z,103706.91
2023-02-14T01:02:01.091Z,103709.88
2023-02-14T01:04:28.808Z,103709.88
2023-02-14T01:06:56.426Z,103704.38
2023-02-14T01:09:24.031Z,103711.28
2023-02-14T01:11:53.003Z,103711.19
2023-02-14T01:14:20.606Z,103710.25
2023-02-14T01:16:48.248Z,103703.16
2023-02-14T01:19:15.859Z,103697.84
2023-02-14T01:21:43.502Z,103694.47
2023-02-14T01:24:12.909Z,103698.78
2023-02-14T01:26:40.677Z,103690.00
2023-02-14T01:29:09.649Z,103687.53
2023-02-14T01:31:37.588Z,103687.53
2023-02-14T01:34:05.666Z,103685.75
2023-02-14T01:36:36.056Z,103680.44
2023-02-14T01:39:06.022Z,103674.22
2023-02-14T01:41:35.648Z,103674.22
2023-02-14T01:44:05.572Z,103670.72
2023-02-14T01:46:36.564Z,103671.75
2023-02-14T01:49:10.081Z,103675.16
2023-02-14T01:51:42.052Z,103667.31
2023-02-14T01:54:10.887Z,103679.69
2023-02-14T01:56:42.832Z,103676.19
2023-02-14T01:59:14.000Z,103674.47
2023-02-14T02:01:43.771Z,103665.78
2023-02-14T02:04:16.512Z,103668.53
2023-02-14T02:06:47.828Z,103672.13
2023-02-14T02:09:21.105Z,103667.88
2023-02-14T02:11:49.492Z,103667.94
2023-02-14T02:14:19.003Z,103673.34
2023-02-14T02:17:09.025Z,103664.63
2023-02-14T02:20:07.997Z,103668.13
2023-02-14T02:22:57.144Z,103667.38
2023-02-14T02:25:43.141Z,103660.00
2023-02-14T02:28:37.310Z,103664.63
2023-02-14T02:31:21.008Z,103658.66
2023-02-14T02:34:34.614Z,103666.78
2023-02-14T02:37:20.848Z,103657.91
2023-02-14T02:40:05.700Z,103650.91
2023-02-14T02:42:43.735Z,103660.66
2023-02-14T02:45:19.948Z,103659.03
2023-02-14T02:47:56.062Z,103650.06
2023-02-14T02:50:47.521Z,103650.91
2023-02-14T02:53:24.088Z,103648.25
2023-02-14T02:56:19.357Z,103641.28
2023-02-14T02:58:52.080Z,103644.78
2023-02-14T03:01:22.969Z,103636.91
2023-02-14T03:04:10.411Z,103637.59
2023-02-14T03:06:37.993Z,103629.84
2023-02-14T03:09:52.643Z,103634.19
2023-02-14T03:12:40.923Z,103632.38
2023-02-14T03:15:18.247Z,103632.31
2023-02-14T03:17:58.965Z,103631.56
2023-02-14T03:20:36.071Z,103636.00
2023-02-14T03:23:09.444Z,103626.16
2023-02-14T03:25:45.019Z,103632.31
2023-02-14T03:28:18.126Z,103631.44
2023-02-14T03:30:53.261Z,103628.13
2023-02-14T03:33:28.089Z,103627.28
2023-02-14T03:36:02.917Z,103629.91
2023-02-14T03:38:35.601Z,103627.38
2023-02-14T03:41:08.803Z,103630.28
2023-02-14T03:43:42.392Z,103632.94
2023-02-14T03:46:14.641Z,103629.34
2023-02-14T03:48:43.912Z,103619.63
2023-02-14T03:51:14.837Z,103626.69
2023-02-14T03:53:48.774Z,103630.47
2023-02-14T03:56:24.051Z,103621.78
2023-02-14T03:58:54.877Z,103626.22
2023-02-14T04:01:25.866Z,103627.25
2023-02-14T04:03:57.319Z,103623.69
2023-02-14T04:06:25.496Z,103636.16
2023-02-14T04:08:53.319Z,103633.41
2023-02-14T04:11:24.501Z,103632.72
2023-02-14T04:13:52.497Z,103625.81
2023-02-14T04:16:20.232Z,103623.47
2023-02-14T04:19:01.769Z,103628.75
2023-02-14T04:21:29.336Z,103629.88
2023-02-14T04:23:57.313Z,103624.59
2023-02-14T04:26:26.261Z,103628.94
2023-02-14T04:28:53.844Z,103628.28
2023-02-14T04:31:21.910Z,103619.53
2023-02-14T04:33:51.200Z,103624.09
2023-02-14T04:36:18.904Z,103614.81
2023-02-14T04:38:46.542Z,103621.91
2023-02-14T04:41:14.228Z,103621.06
2023-02-14T04:43:43.179Z,103620.25
2023-02-14T04:46:10.817Z,103623.88
2023-02-14T04:48:38.388Z,103613.31
2023-02-14T04:51:07.017Z,103616.81
2023-02-14T04:53:40.084Z,103612.34
2023-02-14T04:56:08.666Z,103605.25
2023-02-14T04:58:36.481Z,103608.00
2023-02-14T05:01:05.544Z,103609.78
2023-02-14T05:03:33.211Z,103599.28
2023-02-14T05:06:00.844Z,103595.81
2023-02-14T05:08:28.403Z,103592.31
2023-02-14T05:10:56.078Z,103589.56
2023-02-14T05:13:23.837Z,103592.22
2023-02-14T05:15:51.425Z,103592.03
2023-02-14T05:18:20.474Z,103593.81
2023-02-14T05:20:50.470Z,103587.91
2023-02-14T05:23:18.182Z,103586.00
2023-02-14T05:25:46.271Z,103582.50
2023-02-14T05:28:13.874Z,103585.31
2023-02-14T05:30:42.123Z,103583.63
2023-02-14T05:33:09.845Z,103587.22
2023-02-14T05:35:39.085Z,103584.66
2023-02-14T05:38:06.742Z,103588.16
2023-02-14T05:40:34.649Z,103591.75
2023-02-14T05:43:02.405Z,103589.00
2023-02-14T05:45:30.222Z,103582.78
2023-02-14T05:47:57.832Z,103591.47
2023-02-14T05:50:25.377Z,103591.47
2023-02-14T05:52:54.378Z,103588.81
2023-02-14T05:55:22.143Z,103598.47
2023-02-14T05:57:49.741Z,103596.00
2023-02-14T06:00:19.019Z,103598.72
2023-02-14T06:02:46.612Z,103598.66
2023-02-14T06:05:14.865Z,103598.53
2023-02-14T06:07:43.188Z,103593.34
2023-02-14T06:10:12.749Z,103599.69
2023-02-14T06:12:40.344Z,103603.09
2023-02-14T06:15:08.651Z,103599.41
2023-02-14T06:17:36.288Z,103607.34
2023-02-14T06:20:03.928Z,103609.13
2023-02-14T06:22:31.768Z,103610.91
2023-02-14T06:24:59.436Z,103615.34
2023-02-14T06:27:29.891Z,103615.16
2023-02-14T06:29:57.641Z,103611.59
2023-02-14T06:32:25.591Z,103609.88
2023-02-14T06:34:53.259Z,103611.50
2023-02-14T06:37:21.140Z,103609.78
2023-02-14T06:39:48.760Z,103610.91
2023-02-14T06:42:16.452Z,103615.25
2023-02-14T06:44:45.387Z,103608.44
2023-02-14T06:47:12.981Z,103599.75
2023-02-14T06:49:40.697Z,103604.97
2023-02-14T06:52:08.421Z,103607.50
2023-02-14T06:54:35.967Z,103606.59
2023-02-14T06:57:03.763Z,103607.41
2023-02-14T06:59:31.372Z,103602.13
2023-02-14T07:02:00.405Z,103602.03
2023-02-14T07:04:28.368Z,103599.47
2023-02-14T07:06:56.135Z,103597.69
2023-02-14T07:09:24.245Z,103592.41
2023-02-14T07:11:51.882Z,103588.72
2023-02-14T07:14:19.472Z,103593.75
2023-02-14T07:16:47.208Z,103592.66
2023-02-14T07:19:16.547Z,103589.88
2023-02-14T07:21:44.147Z,103584.41
2023-02-14T07:24:11.892Z,103595.09
2023-02-14T07:26:39.498Z,103593.03
2023-02-14T07:29:07.151Z,103598.13
2023-02-14T07:31:34.958Z,103596.25
2023-02-14T07:34:02.671Z,103595.97
2023-02-14T07:36:31.928Z,103589.72
2023-02-14T07:38:59.628Z,103593.16
2023-02-14T07:41:27.216Z,103588.78
2023-02-14T07:43:54.820Z,103586.81
2023-02-14T07:46:23.406Z,103585.28
2023-02-14T07:48:51.960Z,103581.59
2023-02-14T07:51:19.663Z,103588.72
2023-02-14T07:53:48.812Z,103586.63
2023-02-14T07:56:16.527Z,103592.59
2023-02-14T07:58:44.138Z,103593.53
2023-02-14T08:01:11.942Z,103596.84
2023-02-14T08:03:39.632Z,103598.16
2023-02-14T08:06:07.204Z,103606.78
2023-02-14T08:08:34.771Z,103599.50
2023-02-14T08:11:03.837Z,103601.03
2023-02-14T08:13:30.795Z,103603.38
2023-02-14T08:16:09.338Z,103604.97
2023-02-14T08:18:38.849Z,103603.31
2023-02-14T08:21:08.436Z,103610.28
2023-02-14T08:23:36.756Z,103608.22
2023-02-14T08:26:06.209Z,103613.69
2023-02-14T08:28:34.910Z,103603.50
2023-02-14T08:31:03.549Z,103603.88
2023-02-14T08:33:31.324Z,103604.72
2023-02-14T08:35:58.917Z,103604.53
2023-02-14T08:38:26.530Z,103601.78
2023-02-14T08:40:54.144Z,103605.84
2023-02-14T08:43:23.149Z,103607.34
2023-02-14T08:45:53.979Z,103602.72
2023-02-14T08:48:23.421Z,103611.22
2023-02-14T08:50:51.190Z,103605.38
2023-02-14T08:53:18.922Z,103602.06
2023-02-14T08:55:46.514Z,103601.56
2023-02-14T08:58:14.322Z,103596.81
2023-02-14T09:00:43.340Z,103603.63
2023-02-14T09:03:11.516Z,103600.25
2023-02-14T09:05:39.323Z,103602.59
2023-02-14T09:08:07.644Z,103603.50
2023-02-14T09:10:35.342Z,103599.41
2023-02-14T09:13:03.020Z,103592.78
2023-02-14T09:15:30.804Z,103597.66
2023-02-14T09:17:59.842Z,103593.84
2023-02-14T09:20:27.559Z,103595.34
2023-02-14T09:22:56.679Z,103600.25
2023-02-14T09:25:24.308Z,103596.88
2023-02-14T09:27:51.872Z,103598.66
2023-02-14T09:30:19.652Z,103595.59
2023-02-14T09:32:47.382Z,103598.69
2023-02-14T09:35:16.653Z,103596.63
2023-02-14T09:38:01.741Z,103586.50
2023-02-14T09:40:29.383Z,103584.59
2023-02-14T09:43:06.179Z,103586.22
2023-02-14T09:45:35.068Z,103584.38
2023-02-14T09:48:07.468Z,103578.16
2023-02-14T09:50:43.389Z,103580.81
2023-02-14T09:53:22.673Z,103568.38
2023-02-14T09:55:56.972Z,103572.84
2023-02-14T09:58:32.272Z,103567.22
2023-02-14T10:01:06.190Z,103568.25
2023-02-14T10:04:07.118Z,103566.88
2023-02-14T10:06:47.316Z,103560.84
2023-02-14T10:09:26.623Z,103563.88
2023-02-14T10:11:55.345Z,103561.63
2023-02-14T10:14:26.971Z,103563.53
2023-02-14T10:16:57.967Z,103560.53
2023-02-14T10:19:29.667Z,103560.72
2023-02-14T10:22:05.414Z,103556.31
2023-02-14T10:24:38.358Z,103555.25
2023-02-14T10:27:13.322Z,103559.25
2023-02-14T10:29:43.178Z,103558.25
2023-02-14T10:32:15.492Z,103555.16
2023-02-14T10:34:47.864Z,103558.38
2023-02-14T10:37:41.504Z,103552.53
2023-02-14T10:40:42.712Z,103553.88
2023-02-14T10:43:22.014Z,103549.63
2023-02-14T10:46:00.200Z,103550.63
2023-02-14T10:48:34.121Z,103546.56
2023-02-14T10:51:05.882Z,103541.50
2023-02-14T10:53:40.618Z,103540.69
2023-02-14T10:56:18.460Z,103536.09
2023-02-14T10:58:48.160Z,103544.94
2023-02-14T11:01:18.680Z,103539.72
2023-02-14T11:03:54.613Z,103538.91
2023-02-14T11:06:22.402Z,103538.91
2023-02-14T11:08:51.445Z,103543.19
2023-02-14T11:11:25.734Z,103544.53
2023-02-14T11:13:53.589Z,103535.53
2023-02-14T11:16:30.858Z,103536.16
2023-02-14T11:19:10.527Z,103539.31
2023-02-14T11:21:39.329Z,103533.50
2023-02-14T11:24:20.244Z,103530.84
2023-02-14T11:26:49.676Z,103530.13
2023-02-14T11:29:26.394Z,103528.78
2023-02-14T11:31:54.674Z,103517.28
2023-02-14T11:34:32.005Z,103521.50
2023-02-14T11:37:00.272Z,103511.94
2023-02-14T11:39:32.369Z,103502.25
2023-02-14T11:42:04.187Z,103494.88
2023-02-14T11:44:33.958Z,103492.81
2023-02-14T11:47:18.087Z,103493.75
2023-02-14T11:49:56.453Z,103491.59
2023-02-14T11:52:26.706Z,103488.19
2023-02-14T11:54:56.378Z,103486.84
2023-02-14T11:57:28.255Z,103485.22
2023-02-14T11:59:57.697Z,103481.97
2023-02-14T12:02:30.195Z,103476.97
2023-02-14T12:05:00.853Z,103476.38
2023-02-14T12:07:31.846Z,103466.63
2023-02-14T12:10:24.178Z,103478.78
2023-02-14T12:12:57.929Z,103472.25
2023-02-14T12:15:34.381Z,103467.19
2023-02-14T12:18:29.768Z,103463.09
2023-02-14T12:21:04.143Z,103468.84
2023-02-14T12:23:40.108Z,103454.53
2023-02-14T12:26:18.676Z,103449.81
2023-02-14T12:28:52.754Z,103441.34
2023-02-14T12:31:20.881Z,103447.53
2023-02-14T12:33:50.515Z,103439.88
2023-02-14T12:36:32.551Z,103439.38
2023-02-14T12:39:10.284Z,103433.97
2023-02-14T12:41:49.360Z,103432.78
2023-02-14T12:44:26.961Z,103431.06
2023-02-14T12:47:16.036Z,103430.69
2023-02-14T12:50:14.965Z,103427.28
2023-02-14T12:53:01.028Z,103414.94
2023-02-14T12:55:42.436Z,103409.34
2023-02-14T12:58:26.683Z,103406.72
2023-02-14T13:01:07.400Z,103409.88
2023-02-14T13:03:57.617Z,103398.06
2023-02-14T13:06:30.361Z,103390.09
2023-02-14T13:09:14.709Z,103397.25
2023-02-14T13:11:55.425Z,103401.97
2023-02-14T13:14:45.688Z,103393.72
2023-02-14T13:17:21.771Z,103386.38
2023-02-14T13:20:00.477Z,103388.66
2023-02-14T13:22:31.367Z,103379.47
2023-02-14T13:25:02.321Z,103374.28
2023-02-14T13:27:34.047Z,103369.91
2023-02-14T13:30:06.218Z,103362.53
2023-02-14T13:32:39.984Z,103363.88
2023-02-14T13:35:09.302Z,103353.56
2023-02-14T13:37:38.158Z,103357.09
2023-02-14T13:40:09.398Z,103361.53
2023-02-14T13:42:53.637Z,103358.47
2023-02-14T13:45:56.371Z,103354.06
2023-02-14T13:48:27.433Z,103345.47
2023-02-14T13:50:58.280Z,103343.78
2023-02-14T13:53:35.750Z,103352.09
2023-02-14T13:56:06.285Z,103350.41
2023-02-14T13:58:34.517Z,103345.59
2023-02-14T14:01:31.482Z,103336.78
2023-02-14T14:04:02.331Z,103344.19
2023-02-14T14:06:30.740Z,103335.19
2023-02-14T14:08:58.577Z,103341.91
2023-02-14T14:12:00.673Z,103335.94
2023-02-14T14:14:36.125Z,103339.81
2023-02-14T14:17:20.550Z,103341.19
2023-02-14T14:19:48.737Z,103334.63
2023-02-14T14:22:17.649Z,103337.28
2023-02-14T14:25:04.087Z,103335.28
2023-02-14T14:27:35.404Z,103333.34
2023-02-14T14:30:06.045Z,103336.09
2023-02-14T14:32:36.884Z,103329.19
2023-02-14T14:35:08.188Z,103327.50
2023-02-14T14:37:37.481Z,103329.44
2023-02-14T14:40:08.146Z,103320.59
2023-02-14T14:42:38.479Z,103312.03
2023-02-14T14:45:10.400Z,103311.19
2023-02-14T14:47:44.390Z,103316.97
2023-02-14T14:50:18.493Z,103314.81
2023-02-14T14:52:49.781Z,103322.72
2023-02-14T14:55:21.231Z,103319.22
2023-02-14T14:57:53.584Z,103318.09
2023-02-14T15:00:28.661Z,103313.50
2023-02-14T15:03:00.342Z,103308.31
2023-02-14T15:05:30.340Z,103303.88
2023-02-14T15:07:58.762Z,103296.69
2023-02-14T15:10:30.058Z,103297.00
2023-02-14T15:13:17.290Z,103298.66
2023-02-14T15:15:50.942Z,103292.44
2023-02-14T15:18:22.359Z,103288.09
2023-02-14T15:20:50.953Z,103287.72
2023-02-14T15:23:21.599Z,103283.06
2023-02-14T15:25:50.423Z,103286.03
2023-02-14T15:28:29.424Z,103279.47
2023-02-14T15:31:00.154Z,103275.97
2023-02-14T15:33:31.461Z,103288.47
2023-02-14T15:36:02.965Z,103289.09
2023-02-14T15:38:32.051Z,103284.75
2023-02-14T15:41:01.370Z,103277.38
2023-02-14T15:43:32.380Z,103277.59
2023-02-14T15:46:14.206Z,103278.00
2023-02-14T15:48:43.989Z,103280.34
2023-02-14T15:51:18.637Z,103274.72
2023-02-14T15:53:52.628Z,103274.16
2023-02-14T15:56:24.663Z,103279.66
2023-02-14T15:58:58.669Z,103278.47
2023-02-14T16:01:26.988Z,103274.63
2023-02-14T16:03:59.602Z,103276.41
2023-02-14T16:06:34.014Z,103274.16
2023-02-14T16:09:03.062Z,103273.13
2023-02-14T16:11:32.498Z,103266.09
2023-02-14T16:14:20.160Z,103267.72
2023-02-14T16:17:00.183Z,103271.88
2023-02-14T16:19:39.255Z,103262.25
2023-02-14T16:22:08.038Z,103267.13
2023-02-14T16:24:37.814Z,103267.50
2023-02-14T16:27:07.820Z,103274.81
2023-02-14T16:29:37.312Z,103268.25
2023-02-14T16:32:18.075Z,103274.09
2023-02-14T16:34:48.120Z,103284.25
2023-02-14T16:37:22.091Z,103280.56
2023-02-14T16:39:50.712Z,103275.75
2023-02-14T16:42:19.218Z,103277.78
2023-02-14T16:44:47.494Z,103281.66
2023-02-14T16:47:18.048Z,103279.19
2023-02-14T16:49:46.286Z,103281.25
2023-02-14T16:52:15.850Z,103279.53
2023-02-14T16:54:43.728Z,103272.84
2023-02-14T16:57:19.015Z,103274.06
2023-02-14T16:59:47.028Z,103276.03
2023-02-14T17:02:18.306Z,103275.44
2023-02-14T17:04:46.184Z,103277.41
2023-02-14T17:07:16.487Z,103271.38
2023-02-14T17:09:48.457Z,103275.31
2023-02-14T17:12:20.518Z,103273.59
2023-02-14T17:14:50.639Z,103278.28
2023-02-14T17:17:19.789Z,103265.38
2023-02-14T17:19:47.562Z,103260.19
2023-02-14T17:22:15.893Z,103263.94
2023-02-14T17:24:43.467Z,103267.59
2023-02-14T17:27:11.222Z,103257.22
2023-02-14T17:29:39.074Z,103253.81
2023-02-14T17:32:06.797Z,103264.66
2023-02-14T17:34:35.911Z,103262.94
2023-02-14T17:37:04.082Z,103255.19
2023-02-14T17:39:32.067Z,103259.72
2023-02-14T17:41:59.714Z,103256.47
2023-02-14T17:44:29.525Z,103261.84
2023-02-14T17:46:57.925Z,103266.38
2023-02-14T17:49:25.631Z,103259.38
2023-02-14T17:51:54.645Z,103260.31
2023-02-14T17:54:22.250Z,103263.13
2023-02-14T17:56:49.999Z,103255.22
2023-02-14T17:59:17.611Z,103261.50
2023-02-14T18:01:45.287Z,103254.53
2023-02-14T18:04:13.301Z,103260.06
2023-02-14T18:06:42.768Z,103252.31
2023-02-14T18:09:11.761Z,103255.81
2023-02-14T18:11:42.280Z,103252.50
2023-02-14T18:14:09.968Z,103252.56
2023-02-14T18:16:38.843Z,103247.56
2023-02-14T18:19:08.524Z,103245.00
2023-02-14T18:21:39.992Z,103239.84
2023-02-14T18:24:08.593Z,103237.44
2023-02-14T18:26:39.086Z,103236.59
2023-02-14T18:29:08.180Z,103239.31
2023-02-14T18:31:37.536Z,103231.56
2023-02-14T18:34:05.604Z,103231.69
2023-02-14T18:36:35.711Z,103239.66
2023-02-14T18:39:03.825Z,103234.47
2023-02-14T18:41:32.001Z,103232.78
2023-02-14T18:44:01.856Z,103231.22
2023-02-14T18:46:34.206Z,103227.94
2023-02-14T18:49:02.884Z,103221.03
2023-02-14T18:51:32.877Z,103228.91
2023-02-14T18:54:02.042Z,103217.63
2023-02-14T18:56:31.443Z,103211.78
2023-02-14T18:59:01.877Z,103216.19
2023-02-14T19:01:31.817Z,103214.56
2023-02-14T19:04:01.127Z,103204.97
2023-02-14T19:06:31.296Z,103209.47
2023-02-14T19:08:58.975Z,103205.22
2023-02-14T19:11:28.635Z,103202.66
2023-02-14T19:13:58.547Z,103195.72
2023-02-14T19:16:29.810Z,103192.22
2023-02-14T19:18:59.000Z,103196.63
2023-02-14T19:21:30.351Z,103191.44
2023-02-14T19:23:59.024Z,103192.56
2023-02-14T19:26:30.065Z,103188.16
2023-02-14T19:28:59.572Z,103187.31
2023-02-14T19:31:28.804Z,103186.44
2023-02-14T19:33:56.512Z,103183.81
2023-02-14T19:36:25.039Z,103185.59
2023-02-14T19:38:54.250Z,103169.91
2023-02-14T19:41:24.497Z,103170.81
2023-02-14T19:43:52.663Z,103173.50
2023-02-14T19:46:22.670Z,103172.75
2023-02-14T19:48:52.388Z,103162.22
2023-02-14T19:51:22.993Z,103167.66
2023-02-14T19:53:51.172Z,103159.25
2023-02-14T19:56:21.327Z,103154.94
2023-02-14T19:58:49.555Z,103159.50
2023-02-14T20:01:25.568Z,103161.44
2023-02-14T20:03:58.047Z,103148.44
2023-02-14T20:06:27.309Z,103153.88
2023-02-14T20:08:54.935Z,103151.34
2023-02-14T20:11:30.470Z,103147.75
2023-02-14T20:13:59.362Z,103150.47
2023-02-14T20:16:29.358Z,103149.84
2023-02-14T20:18:59.100Z,103152.66
2023-02-14T20:21:28.323Z,103132.63
2023-02-14T20:23:57.426Z,103139.81
2023-02-14T20:26:25.646Z,103137.44
2023-02-14T20:28:55.491Z,103136.75
2023-02-14T20:31:24.018Z,103139.47
2023-02-14T20:33:52.807Z,103137.75
2023-02-14T20:36:22.341Z,103142.09
2023-02-14T20:38:55.797Z,103141.16
2023-02-14T20:41:23.485Z,103140.41
2023-02-14T20:43:51.259Z,103137.66
2023-02-14T20:46:19.073Z,103140.41
2023-02-14T20:48:46.731Z,103129.78
2023-02-14T20:51:16.615Z,103134.22
2023-02-14T20:53:49.159Z,103136.91
2023-02-14T20:56:18.136Z,103130.72
2023-02-14T20:58:45.972Z,103134.22
2023-02-14T21:01:15.713Z,103122.91
2023-02-14T21:03:46.569Z,103131.75
2023-02-14T21:06:16.680Z,103136.22
2023-02-14T21:08:46.126Z,103128.41
2023-02-14T21:11:17.557Z,103119.75
2023-02-14T21:13:45.328Z,103118.13
2023-02-14T21:16:15.819Z,103118.97
2023-02-14T21:18:47.834Z,103117.31
2023-02-14T21:21:19.053Z,103124.25
2023-02-14T21:23:49.401Z,103116.34
2023-02-14T21:26:17.326Z,103112.09
2023-02-14T21:28:45.137Z,103111.25
2023-02-14T21:31:14.928Z,103115.66
2023-02-14T21:33:42.594Z,103114.91
2023-02-14T21:36:12.300Z,103110.66
2023-02-14T21:38:40.305Z,103113.44
2023-02-14T21:41:14.978Z,103109.09
2023-02-14T21:43:45.014Z,103108.25
2023-02-14T21:46:14.395Z,103111.97
2023-02-14T21:48:59.981Z,103106.88
2023-02-14T21:51:28.359Z,103097.38
2023-02-14T21:53:56.731Z,103101.84
2023-02-14T21:56:25.651Z,103101.00
2023-02-14T21:58:55.081Z,103094.91
2023-02-14T22:01:24.373Z,103097.53
2023-02-14T22:03:52.593Z,103092.28
2023-02-14T22:06:20.710Z,103093.09
2023-02-14T22:08:51.970Z,103088.97
2023-02-14T22:11:20.186Z,103085.63
2023-02-14T22:13:49.160Z,103087.50
2023-02-14T22:16:19.454Z,103084.06
2023-02-14T22:18:47.979Z,103079.06
2023-02-14T22:21:19.707Z,103077.31
2023-02-14T22:23:47.666Z,103068.72
2023-02-14T22:26:18.084Z,103067.97
2023-02-14T22:28:48.837Z,103071.50
2023-02-14T22:31:19.860Z,103065.41
2023-02-14T22:33:48.122Z,103069.88
2023-02-14T22:36:16.513Z,103067.25
2023-02-14T22:38:44.755Z,103066.41
2023-02-14T22:41:14.222Z,103062.16
2023-02-14T22:43:42.885Z,103059.53
2023-02-14T22:46:12.975Z,103059.53
2023-02-14T22:48:42.343Z,103050.81
2023-02-14T22:51:12.599Z,103064.00
2023-02-14T22:53:40.350Z,103057.81
2023-02-14T22:56:12.882Z,103052.72
2023-02-14T22:58:41.038Z,103039.69
2023-02-14T23:01:13.955Z,103059.84
2023-02-14T23:03:43.371Z,103060.75
2023-02-14T23:06:11.850Z,103056.44
2023-02-14T23:08:40.230Z,103060.22
2023-02-14T23:11:09.612Z,103053.59
2023-02-14T23:13:55.792Z,103053.03
2023-02-14T23:16:40.766Z,103043.06
2023-02-14T23:19:30.823Z,103040.06
2023-02-14T23:21:59.231Z,103042.34
2023-02-14T23:24:26.852Z,103043.75
2023-02-14T23:26:56.155Z,103042.94
2023-02-14T23:29:23.892Z,103036.00
2023-02-14T23:31:51.762Z,103042.13
2023-02-14T23:34:21.190Z,103040.03
2023-02-14T23:36:48.854Z,103045.97
2023-02-14T23:39:16.459Z,103045.06
2023-02-14T23:41:49.181Z,103030.53
2023-02-14T23:44:21.345Z,103023.47
2023-02-14T23:46:50.057Z,103033.16
2023-02-14T23:49:17.978Z,103026.28
2023-02-14T23:51:48.754Z,103022.97
2023-02-14T23:54:17.285Z,103015.28
2023-02-14T23:56:45.838Z,103012.72
2023-02-14T23:59:14.625Z,103014.63
